< < Back
Terminal Aerodrome Forecast


Current Version              Previous Versions:   1  2  3  4  5  6  7  8  9  

Terminal Aerodrome Forecast

816
FTUS42 KCHS 022136 AAA
TAFCHS
TAF AMD
KCHS 022136Z 0222/0318 27009KT P6SM SCT035
     FM030000 07010KT P6SM SCT015 BKN030
     FM030300 06010KT 6SM BR SCT008 BKN015
     FM030800 05011KT 6SM BR BKN008
     FM031400 06010KT P6SM SCT008 BKN015=



Latest METAR

133
SAUS80 KWBC 022300 CCA
MTRCHS
METAR KCHS 022256Z 23005KT 10SM BKN035 BKN150 21/14 A3020 RMK AO2 SLP225
T02110144


USA.gov is the U.S. government's official web portal to all federal, state and local government web resources and services.